Phaethon — SVAM2 — position and weather

sailwx.info

Track history (hours):
 
Tides and Currents Weather Stations Pressure Air Temp Water Temp Dewpoint Dewpoint Depression Visibility Wind Speed Wind Dir Waves Ship Positions

Phaethon

Last reported at 2015-Jan-18 15:24 UTC. Time now 2015-Jan-28 22:18 UTC.
Position N 07°32' W 014°17'.
Warning: this ship's position is 10 days out of date.

Length 274 m; draft 9.5 m.

Type: Tanker. MMSI: 240836000.

Date/timePositionNaut miles runAvg speedWind from/ knotsBaromVisibWave heightAir tempDewpointWater temp
2015-Jan-18 15:24N 07°32' W 014°17'1011.7
2015-Jan-18 14:33N 07°39' W 014°24'1212.0
2015-Jan-18 13:33N 07°47' W 014°33'1212.4
2015-Jan-18 12:33N 07°55' W 014°42'1212.2
2015-Jan-18 11:33N 08°03' W 014°51'1311.8
2015-Jan-18 10:28N 08°12' W 015°01'4012.3
2015-Jan-18 07:09N 08°40' W 015°31'2212.0
2015-Jan-18 05:21N 08°54' W 015°47'2111.8
2015-Jan-18 03:33N 09°09' W 016°03'1311.9
2015-Jan-18 02:27N 09°18' W 016°13'1111.7
2015-Jan-18 01:32N 09°25' W 016°21'1212.0
2015-Jan-18 00:33N 09°33' W 016°29'1212.2
2015-Jan-17 23:33N 09°41' W 016°38'1212.1
2015-Jan-17 22:33N 09°49' W 016°47'1512.0
2015-Jan-17 21:17N 10°00' W 016°59'1311.8
2015-Jan-17 20:11N 10°08' W 017°08'711.4
2015-Jan-17 19:33N 10°13' W 017°14'1411.8
2015-Jan-17 18:22N 10°23' W 017°24'2111.1
2015-Jan-17 16:28N 10°42' W 017°33'1112.1
2015-Jan-17 15:33N 10°53' W 017°35'1211.8
2015-Jan-17 14:33N 11°04' W 017°37'1211.5
2015-Jan-17 13:33N 11°16' W 017°38'1211.9
2015-Jan-17 12:33N 11°28' W 017°39'  
2015-Jan-12 14:13N 33°50' W 013°12'911.4
2015-Jan-12 13:27N 33°58' W 013°09'49 9.9
2015-Jan-12 08:31N 34°46' W 012°54'4711.6
2015-Jan-12 04:30N 35°30' W 012°38'1111.6
2015-Jan-12 03:33N 35°41' W 012°35'1211.5
2015-Jan-12 02:32N 35°52' W 012°32'1111.5
2015-Jan-12 01:32N 36°04' W 012°28'1311.8
2015-Jan-12 00:27N 36°16' W 012°24'1111.9
2015-Jan-11 23:33N 36°26' W 012°20'1211.7
2015-Jan-11 22:33N 36°38' W 012°16'1211.8
2015-Jan-11 21:33N 36°49' W 012°13'1211.7
2015-Jan-11 20:33N 37°00' W 012°09'1311.8
2015-Jan-11 19:25N 37°13' W 012°05'1011.5
2015-Jan-11 18:33N 37°23' W 012°01'1111.4
2015-Jan-11 17:33N 37°34' W 011°58'1111.2
2015-Jan-11 16:33N 37°45' W 011°54'1211.4
2015-Jan-11 15:32N 37°56' W 011°51'1111.3
2015-Jan-11 14:33N 38°06' W 011°47'1311.5
2015-Jan-11 13:24N 38°19' W 011°42'1011.9
2015-Jan-11 12:33N 38°29' W 011°39'1211.6
2015-Jan-11 11:33N 38°40' W 011°35'1211.9
2015-Jan-11 10:33N 38°52' W 011°31'1211.9
2015-Jan-11 09:33N 39°03' W 011°27'1211.8
2015-Jan-11 08:33N 39°15' W 011°23'1211.7
2015-Jan-11 07:30N 39°27' W 011°19'1612.3
2015-Jan-11 06:14N 39°42' W 011°14'3211.6
2015-Jan-11 03:30N 40°12' W 011°03'  
Track history (hours):
 
Tides and Currents Weather Stations Pressure Air Temp Water Temp Dewpoint Dewpoint Depression Visibility Wind Speed Wind Dir Waves Ship Positions

Phaethon

Last reported at 2015-Jan-18 15:24 UTC. Time now 2015-Jan-28 22:18 UTC.
Position N 07°32' W 014°17'.
Warning: this ship's position is 10 days out of date.

Length 274 m; draft 9.5 m.

Type: Tanker. MMSI: 240836000.

Date/timePositionNaut miles runAvg speedWind from/ knotsBaromVisibWave heightAir tempDewpointWater temp
2015-Jan-18 15:24N 07°32' W 014°17'1011.7
2015-Jan-18 14:33N 07°39' W 014°24'1212.0
2015-Jan-18 13:33N 07°47' W 014°33'1212.4
2015-Jan-18 12:33N 07°55' W 014°42'1212.2
2015-Jan-18 11:33N 08°03' W 014°51'1311.8
2015-Jan-18 10:28N 08°12' W 015°01'4012.3
2015-Jan-18 07:09N 08°40' W 015°31'2212.0
2015-Jan-18 05:21N 08°54' W 015°47'2111.8
2015-Jan-18 03:33N 09°09' W 016°03'1311.9
2015-Jan-18 02:27N 09°18' W 016°13'1111.7
2015-Jan-18 01:32N 09°25' W 016°21'1212.0
2015-Jan-18 00:33N 09°33' W 016°29'1212.2
2015-Jan-17 23:33N 09°41' W 016°38'1212.1
2015-Jan-17 22:33N 09°49' W 016°47'1512.0
2015-Jan-17 21:17N 10°00' W 016°59'1311.8
2015-Jan-17 20:11N 10°08' W 017°08'711.4
2015-Jan-17 19:33N 10°13' W 017°14'1411.8
2015-Jan-17 18:22N 10°23' W 017°24'2111.1
2015-Jan-17 16:28N 10°42' W 017°33'1112.1
2015-Jan-17 15:33N 10°53' W 017°35'1211.8
2015-Jan-17 14:33N 11°04' W 017°37'1211.5
2015-Jan-17 13:33N 11°16' W 017°38'1211.9
2015-Jan-17 12:33N 11°28' W 017°39'  
2015-Jan-12 14:13N 33°50' W 013°12'911.4
2015-Jan-12 13:27N 33°58' W 013°09'49 9.9
2015-Jan-12 08:31N 34°46' W 012°54'4711.6
2015-Jan-12 04:30N 35°30' W 012°38'1111.6
2015-Jan-12 03:33N 35°41' W 012°35'1211.5
2015-Jan-12 02:32N 35°52' W 012°32'1111.5
2015-Jan-12 01:32N 36°04' W 012°28'1311.8
2015-Jan-12 00:27N 36°16' W 012°24'1111.9
2015-Jan-11 23:33N 36°26' W 012°20'1211.7
2015-Jan-11 22:33N 36°38' W 012°16'1211.8
2015-Jan-11 21:33N 36°49' W 012°13'1211.7
2015-Jan-11 20:33N 37°00' W 012°09'1311.8
2015-Jan-11 19:25N 37°13' W 012°05'1011.5
2015-Jan-11 18:33N 37°23' W 012°01'1111.4
2015-Jan-11 17:33N 37°34' W 011°58'1111.2
2015-Jan-11 16:33N 37°45' W 011°54'1211.4
2015-Jan-11 15:32N 37°56' W 011°51'1111.3
2015-Jan-11 14:33N 38°06' W 011°47'1311.5
2015-Jan-11 13:24N 38°19' W 011°42'1011.9
2015-Jan-11 12:33N 38°29' W 011°39'1211.6
2015-Jan-11 11:33N 38°40' W 011°35'1211.9
2015-Jan-11 10:33N 38°52' W 011°31'1211.9
2015-Jan-11 09:33N 39°03' W 011°27'1211.8
2015-Jan-11 08:33N 39°15' W 011°23'1211.7
2015-Jan-11 07:30N 39°27' W 011°19'1612.3
2015-Jan-11 06:14N 39°42' W 011°14'3211.6
2015-Jan-11 03:30N 40°12' W 011°03'  

Dump ship's entire track history